Погода Столпниковона 2 недели

Тверская область, Россия

21 мая-03 июня
  • 21мая
    Сегодня
    +7°
    +22°
    Ясно и безоблачно
    ВремяПогодаТемператураВлажностьДавлениеВетер, м/сВероятность осадков
    00:00Ясно и безоблачно+12°C89 %749 мм0.4 м/с2 %
    03:00Практически безоблачно+10°C77 %750 мм0.6 м/с2 %
    06:00Практически безоблачно+10°C68 %751 мм0.9 м/с2 %
    09:00Ясно и безоблачно+17°C64 %752 мм1.2 м/с2 %
    12:00Ясно и безоблачно+21°C44 %753 мм2.4 м/с2 %
    15:00Ясно и безоблачно+22°C36 %752 мм2.8 м/с2 %
    18:00Ясно и безоблачно+21°C33 %752 мм2.1 м/с2 %
    21:00Ясно и безоблачно+15°C56 %753 мм0.8 м/с2 %
  • 22мая
    Среда
    +6°
    +21°
    Ясно и безоблачно
    ВремяПогодаТемператураВлажностьДавлениеВетер, м/сВероятность осадков
    00:00Ясно и безоблачно+10°C62 %754 мм0.9 м/с2 %
    03:00Ясно и безоблачно+7°C69 %754 мм0.8 м/с2 %
    06:00Ясно и безоблачно+8°C62 %756 мм0.9 м/с2 %
    09:00Ясно и безоблачно+16°C47 %756 мм1.8 м/с2 %
    12:00Ясно и безоблачно+20°C38 %756 мм2.4 м/с2 %
    15:00Ясно и безоблачно+20°C34 %756 мм2.4 м/с2 %
    18:00Ясно и безоблачно+20°C38 %755 мм2.1 м/с2 %
    21:00Ясно и безоблачно+15°C59 %756 мм0.9 м/с2 %
  • 23мая
    Четверг
    +7°
    +21°
    Небольшая облачность
    ВремяПогодаТемператураВлажностьДавлениеВетер, м/сВероятность осадков
    00:00Ясно и безоблачно+10°C61 %756 мм1.2 м/с2 %
    03:00Практически безоблачно+8°C75 %757 мм0.6 м/с2 %
    06:00Ясно и безоблачно+8°C75 %758 мм0.9 м/с2 %
    09:00Ясно и безоблачно+16°C58 %759 мм1.7 м/с2 %
    12:00Небольшая облачность+20°C39 %759 мм2.6 м/с2 %
    15:00Небольшая облачность+20°C38 %759 мм2.2 м/с2 %
    18:00Небольшая облачность+21°C38 %759 мм1.6 м/с2 %
    21:00Ясно и безоблачно+14°C68 %759 мм0.6 м/с2 %
  • 24мая
    Пятница
    +10°
    +23°
    Практически безоблачно
    ВремяПогодаТемператураВлажностьДавлениеВетер, м/сВероятность осадков
    00:00Ясно и безоблачно+10°C73 %759 мм0.7 м/с2 %
    03:00Ясно и безоблачно+8°C80 %760 мм0.6 м/с2 %
    06:00Ясно и безоблачно+10°C76 %761 мм0.7 м/с2 %
    09:00Ясно и безоблачно+18°C54 %761 мм1.2 м/с2 %
    12:00Практически безоблачно+22°C40 %761 мм2.3 м/с2 %
    15:00Практически безоблачно+23°C37 %761 мм2.5 м/с2 %
    18:00Ясно и безоблачно+23°C39 %760 мм1.8 м/с2 %
    21:00Ясно и безоблачно+16°C67 %759 мм0.9 м/с2 %
  • 25мая
    Суббота
    +12°
    +24°
    Небольшая облачность
    ВремяПогодаТемператураВлажностьДавлениеВетер, м/сВероятность осадков
    00:00Ясно и безоблачно+13°C62 %759 мм1.1 м/с2 %
    03:00Небольшая облачность+11°C68 %760 мм0.9 м/с2 %
    06:00Ясно и безоблачно+12°C69 %760 мм1.2 м/с2 %
    09:00Ясно и безоблачно+19°C53 %759 мм2.1 м/с2 %
    12:00Ясно и безоблачно+23°C41 %759 мм3.1 м/с4 %
    15:00Небольшая облачность+24°C38 %758 мм3.0 м/с10 %
    18:00Практически безоблачно+24°C41 %756 мм2.5 м/с11 %
    21:00Ясно и безоблачно+19°C56 %756 мм0.9 м/с4 %
Мы используем cookies
Соглашаюсь